Drayden, Maryland
Current Conditions -  °F | °C
As of 10:53 PM on Saturday 20 Dec 2014 (Local Time) from KNUI Reporting Station
Few Clouds Few Clouds  
Wind Chill: 29°   Ceiling: Unl
Heat Index: 29°   Visibility: 10mi
Dew Point: 23°   Wind: 0mph
Humidity: 78%   Direction: NA
Pressure: 30.3"   Gusts: NA
Location:  38.18°N, 76.48°W
Report Text: KNUI 210353Z AUTO 00000KT 10SM FEW100 M02/M05 A3030 RMK AO2 SLP261 T10171050
Loading
Personal Weather Stations






























Interactive Weather Map New forecast layout! Learn more

10-Day Weather Forecast

Advertisements
Track Severe Weather on mobile